Ruby Airport Ruby US
ICAO: PARY
IATA:
Category: Medium
Scheduled Services:

Elevation: 658 ft
TransAlt. 18000 ft.

Airport Communications:
ASOS:119.925
ANCHORAGE CNTR:127
CTAF:122.8
FAIRBANKS RDO:122.2

PARY Zoom In..

If you have problems with the map follow the link
https://www.worldairports.se/pages/airport.php?
ICAO=PARY

Runways:

(A) RW 03 length 4000 ft width 100 ft
---- / hdg 31

(B) RW 21 length 4000 ft width 100 ft
---- / hdg 211

Location; PARY
Day. 20 / Time. 08.56 Zulu
* Altimeter: 29.55
* Temperature: -27° c. 16.6°f.
* Wind from: 080° Speed 11 kn.
Dewpoint: -31° c.
Visibility: 10 Statute Miles.
Clouds: Scattered 7000 ft.

PARY 200856Z AUTO 08011KT 10SM SCT070 M27/M31 A2955 RMK AO2 SLP036 T12671306 57001 FZRANO


Wind From 080°
Speed 11 kn.

 
 
jpsmedia worldairports.se 2020   terms of use